CFG6EL LGKR-EDDF
Flight info
| Callsign | CFG6EL |
|---|---|
| Flight time | 2h 8m |
| Altitude | 32000 |
| Route | OLGAT DCT CRAYE/N0452F340 DCT GISAM DCT DARZA DCT SIMBA/N0447F360 DCT AKINI T161 DEBHI DEBHI1A |
| Aircraft | A321/M-SDE3FGHIRWY/LB1 |
Departure
| Time | 2026-05-05 14:29 |
|---|---|
| Airport | Corfu Ioannis Kapodistrias International Airport (LGKR) |
Arrival
| Time | 2026-05-05 16:37 |
|---|---|
| Airport | Frankfurt Main Airport (EDDF) |
| Time | Latitude | Longitude | Altitude | Speed | Heading |
|---|---|---|---|---|---|
| 2026-05-05 14:12 | 39.60592 | 19.91383 | 19 ft | 0 kts | 78° |
| 2026-05-05 14:21 | 39.60590 | 19.91354 | 18 ft | 4 kts | 98° |
| 2026-05-05 14:21 | 39.60592 | 19.91328 | 19 ft | 4 kts | 111° |
| 2026-05-05 14:21 | 39.60604 | 19.91298 | 18 ft | 4 kts | 105° |
| 2026-05-05 14:21 | 39.60604 | 19.91280 | 20 ft | 4 kts | 10° |
| 2026-05-05 14:22 | 39.60586 | 19.91289 | 21 ft | 4 kts | 316° |
| 2026-05-05 14:22 | 39.60567 | 19.91315 | 23 ft | 4 kts | 316° |
| 2026-05-05 14:22 | 39.60560 | 19.91323 | 19 ft | 0 kts | 319° |
| 2026-05-05 14:24 | 39.60561 | 19.91322 | 18 ft | 1 kts | 319° |
| 2026-05-05 14:24 | 39.60582 | 19.91299 | 18 ft | 7 kts | 319° |
| 2026-05-05 14:24 | 39.60631 | 19.91245 | 18 ft | 10 kts | 322° |
| 2026-05-05 14:24 | 39.60695 | 19.91218 | 18 ft | 9 kts | 347° |
| 2026-05-05 14:25 | 39.60753 | 19.91202 | 19 ft | 8 kts | 349° |
| 2026-05-05 14:25 | 39.60806 | 19.91190 | 18 ft | 8 kts | 349° |
| 2026-05-05 14:25 | 39.60859 | 19.91176 | 18 ft | 8 kts | 348° |
| 2026-05-05 14:25 | 39.60914 | 19.91161 | 18 ft | 8 kts | 348° |
| 2026-05-05 14:26 | 39.60971 | 19.91145 | 19 ft | 9 kts | 348° |
| 2026-05-05 14:26 | 39.61026 | 19.91130 | 19 ft | 7 kts | 348° |
| 2026-05-05 14:26 | 39.61070 | 19.91119 | 19 ft | 6 kts | 348° |
| 2026-05-05 14:26 | 39.61102 | 19.91111 | 19 ft | 4 kts | 348° |
| 2026-05-05 14:27 | 39.61121 | 19.91106 | 19 ft | 2 kts | 348° |
| 2026-05-05 14:27 | 39.61128 | 19.91103 | 19 ft | 0 kts | 348° |
| 2026-05-05 14:27 | 39.61129 | 19.91103 | 19 ft | 0 kts | 348° |
| 2026-05-05 14:27 | 39.61130 | 19.91103 | 19 ft | 1 kts | 348° |
| 2026-05-05 14:28 | 39.61161 | 19.91095 | 19 ft | 8 kts | 348° |
| 2026-05-05 14:28 | 39.61210 | 19.91061 | 20 ft | 7 kts | 310° |
| 2026-05-05 14:28 | 39.61223 | 19.90999 | 21 ft | 9 kts | 264° |
| 2026-05-05 14:28 | 39.61169 | 19.90961 | 21 ft | 12 kts | 171° |
| 2026-05-05 14:29 | 39.60932 | 19.91020 | 21 ft | 70 kts | 169° |
| 2026-05-05 14:29 | 39.60226 | 19.91205 | 22 ft | 134 kts | 169° |
| 2026-05-05 14:29 | 39.59161 | 19.91483 | 174 ft | 167 kts | 169° |
| 2026-05-05 14:29 | 39.58068 | 19.91904 | 914 ft | 166 kts | 148° |
| 2026-05-05 14:30 | 39.57255 | 19.93014 | 1392 ft | 179 kts | 117° |
| 2026-05-05 14:30 | 39.57102 | 19.94634 | 1762 ft | 190 kts | 73° |
| 2026-05-05 14:30 | 39.57825 | 19.96020 | 2173 ft | 193 kts | 32° |
| 2026-05-05 14:30 | 39.59094 | 19.96499 | 2607 ft | 193 kts | 352° |
| 2026-05-05 14:31 | 39.60298 | 19.95825 | 3067 ft | 192 kts | 314° |
| 2026-05-05 14:31 | 39.60895 | 19.94324 | 3534 ft | 191 kts | 275° |
| 2026-05-05 14:31 | 39.60794 | 19.92614 | 3977 ft | 191 kts | 262° |
| 2026-05-05 14:31 | 39.60608 | 19.90853 | 4199 ft | 206 kts | 257° |
| 2026-05-05 14:32 | 39.60178 | 19.88997 | 4340 ft | 224 kts | 252° |
| 2026-05-05 14:32 | 39.59691 | 19.86969 | 4456 ft | 249 kts | 253° |
| 2026-05-05 14:32 | 39.59524 | 19.84685 | 4887 ft | 263 kts | 279° |
| 2026-05-05 14:32 | 39.60237 | 19.82496 | 5521 ft | 269 kts | 308° |
| 2026-05-05 14:33 | 39.61556 | 19.80746 | 6233 ft | 273 kts | 316° |
| 2026-05-05 14:33 | 39.62926 | 19.79025 | 6948 ft | 276 kts | 316° |
| 2026-05-05 14:33 | 39.64312 | 19.77280 | 7619 ft | 278 kts | 316° |
| 2026-05-05 14:33 | 39.65704 | 19.75520 | 8331 ft | 281 kts | 316° |
| 2026-05-05 14:34 | 39.67102 | 19.73742 | 9045 ft | 282 kts | 315° |
| 2026-05-05 14:34 | 39.68510 | 19.71947 | 9716 ft | 285 kts | 315° |
| 2026-05-05 14:34 | 39.69931 | 19.70138 | 10363 ft | 289 kts | 315° |
| 2026-05-05 14:34 | 39.71423 | 19.68241 | 10502 ft | 311 kts | 316° |
| 2026-05-05 14:35 | 39.73020 | 19.66213 | 10626 ft | 332 kts | 315° |
| 2026-05-05 14:35 | 39.74712 | 19.64063 | 10902 ft | 345 kts | 316° |
| 2026-05-05 14:35 | 39.76438 | 19.61863 | 11453 ft | 350 kts | 316° |
| 2026-05-05 14:35 | 39.78177 | 19.59642 | 12088 ft | 352 kts | 315° |
| 2026-05-05 14:36 | 39.79929 | 19.57410 | 12692 ft | 355 kts | 315° |
| 2026-05-05 14:36 | 39.81702 | 19.55149 | 13315 ft | 358 kts | 315° |
| 2026-05-05 14:36 | 39.83483 | 19.52873 | 13937 ft | 360 kts | 315° |
| 2026-05-05 14:36 | 39.85276 | 19.50577 | 14487 ft | 363 kts | 315° |
| 2026-05-05 14:37 | 39.87078 | 19.48269 | 15052 ft | 365 kts | 315° |
| 2026-05-05 14:37 | 39.88889 | 19.45950 | 15609 ft | 366 kts | 315° |
| 2026-05-05 14:37 | 39.90711 | 19.43615 | 16175 ft | 368 kts | 314° |
| 2026-05-05 14:37 | 39.92536 | 19.41264 | 16741 ft | 369 kts | 314° |
| 2026-05-05 14:38 | 39.94371 | 19.38908 | 17301 ft | 371 kts | 314° |
| 2026-05-05 14:38 | 39.96214 | 19.36547 | 17849 ft | 372 kts | 314° |
| 2026-05-05 14:38 | 39.98064 | 19.34177 | 18385 ft | 374 kts | 314° |
| 2026-05-05 14:38 | 39.99920 | 19.31795 | 18835 ft | 375 kts | 314° |
| 2026-05-05 14:39 | 40.01784 | 19.29396 | 19274 ft | 377 kts | 314° |
| 2026-05-05 14:39 | 40.03654 | 19.26985 | 19708 ft | 379 kts | 314° |
| 2026-05-05 14:39 | 40.05530 | 19.24558 | 20138 ft | 381 kts | 314° |
| 2026-05-05 14:39 | 40.07419 | 19.22118 | 20566 ft | 383 kts | 314° |
| 2026-05-05 14:40 | 40.09287 | 19.19699 | 20984 ft | 385 kts | 314° |
| 2026-05-05 14:40 | 40.11215 | 19.17202 | 21415 ft | 387 kts | 314° |
| 2026-05-05 14:40 | 40.13131 | 19.14722 | 21833 ft | 388 kts | 314° |
| 2026-05-05 14:40 | 40.15055 | 19.12234 | 22247 ft | 390 kts | 314° |
| 2026-05-05 14:41 | 40.16985 | 19.09738 | 22718 ft | 390 kts | 313° |
| 2026-05-05 14:41 | 40.18917 | 19.07232 | 23153 ft | 392 kts | 313° |
| 2026-05-05 14:41 | 40.20830 | 19.04745 | 23552 ft | 394 kts | 313° |
| 2026-05-05 14:41 | 40.22803 | 19.02181 | 23910 ft | 396 kts | 314° |
| 2026-05-05 14:42 | 40.24932 | 18.99867 | 24243 ft | 400 kts | 323° |
| 2026-05-05 14:42 | 40.27355 | 18.98050 | 24580 ft | 404 kts | 329° |
| 2026-05-05 14:42 | 40.29820 | 18.96388 | 24902 ft | 405 kts | 329° |
| 2026-05-05 14:42 | 40.32362 | 18.94666 | 25245 ft | 406 kts | 329° |
| 2026-05-05 14:43 | 40.34836 | 18.92983 | 25589 ft | 407 kts | 329° |
| 2026-05-05 14:43 | 40.37341 | 18.91255 | 25922 ft | 408 kts | 328° |
| 2026-05-05 14:43 | 40.39849 | 18.89508 | 26243 ft | 409 kts | 328° |
| 2026-05-05 14:43 | 40.42361 | 18.87751 | 26583 ft | 410 kts | 329° |
| 2026-05-05 14:44 | 40.44879 | 18.85990 | 26937 ft | 410 kts | 328° |
| 2026-05-05 14:44 | 40.47399 | 18.84229 | 27265 ft | 411 kts | 328° |
| 2026-05-05 14:44 | 40.49926 | 18.82465 | 27581 ft | 412 kts | 328° |
| 2026-05-05 14:44 | 40.52459 | 18.80697 | 27878 ft | 413 kts | 328° |
| 2026-05-05 14:45 | 40.54997 | 18.78926 | 28187 ft | 414 kts | 328° |
| 2026-05-05 14:45 | 40.57541 | 18.77151 | 28451 ft | 415 kts | 327° |
| 2026-05-05 14:45 | 40.60099 | 18.75363 | 28652 ft | 418 kts | 328° |
| 2026-05-05 14:45 | 40.62674 | 18.73566 | 28920 ft | 419 kts | 328° |
| 2026-05-05 14:46 | 40.65250 | 18.71765 | 29194 ft | 421 kts | 328° |
| 2026-05-05 14:46 | 40.67838 | 18.69957 | 29536 ft | 420 kts | 328° |
| 2026-05-05 14:46 | 40.70414 | 18.68156 | 29957 ft | 418 kts | 327° |
| 2026-05-05 14:46 | 40.72969 | 18.66368 | 30353 ft | 415 kts | 327° |
| 2026-05-05 14:47 | 40.75513 | 18.64585 | 30697 ft | 413 kts | 327° |
| 2026-05-05 14:47 | 40.78042 | 18.62806 | 31027 ft | 411 kts | 327° |
| 2026-05-05 14:47 | 40.80563 | 18.61024 | 31353 ft | 410 kts | 327° |
| 2026-05-05 14:47 | 40.83076 | 18.59247 | 31676 ft | 409 kts | 327° |
| 2026-05-05 14:48 | 40.85582 | 18.57477 | 31996 ft | 408 kts | 327° |
| 2026-05-05 14:48 | 40.88079 | 18.55715 | 32317 ft | 407 kts | 327° |
| 2026-05-05 14:48 | 40.90572 | 18.53953 | 32655 ft | 405 kts | 326° |
| 2026-05-05 14:48 | 40.93052 | 18.52196 | 32983 ft | 404 kts | 326° |
| 2026-05-05 14:49 | 40.95528 | 18.50444 | 33302 ft | 403 kts | 326° |
| 2026-05-05 14:49 | 40.97997 | 18.48699 | 33613 ft | 402 kts | 326° |
| 2026-05-05 14:49 | 41.00462 | 18.46956 | 33913 ft | 401 kts | 326° |
| 2026-05-05 14:49 | 41.02919 | 18.45215 | 34209 ft | 400 kts | 326° |
| 2026-05-05 14:50 | 41.05368 | 18.43477 | 34460 ft | 399 kts | 326° |
| 2026-05-05 14:50 | 41.07818 | 18.41737 | 34643 ft | 400 kts | 326° |
| 2026-05-05 14:50 | 41.10278 | 18.39992 | 34815 ft | 401 kts | 326° |
| 2026-05-05 14:50 | 41.12739 | 18.38243 | 35046 ft | 401 kts | 326° |
| 2026-05-05 14:51 | 41.15197 | 18.36493 | 35287 ft | 401 kts | 326° |
| 2026-05-05 14:51 | 41.17651 | 18.34743 | 35528 ft | 400 kts | 326° |
| 2026-05-05 14:51 | 41.20100 | 18.32996 | 35775 ft | 399 kts | 326° |
| 2026-05-05 14:51 | 41.22549 | 18.31246 | 35982 ft | 399 kts | 326° |
| 2026-05-05 14:52 | 41.27405 | 18.27765 | 36073 ft | 398 kts | 326° |
| 2026-05-05 14:52 | 41.32276 | 18.24279 | 36079 ft | 397 kts | 326° |
| 2026-05-05 14:53 | 41.37140 | 18.20784 | 36076 ft | 397 kts | 326° |
| 2026-05-05 14:53 | 41.42000 | 18.17286 | 36076 ft | 397 kts | 326° |
| 2026-05-05 14:54 | 41.46867 | 18.13788 | 36075 ft | 397 kts | 326° |
| 2026-05-05 14:54 | 41.51734 | 18.10279 | 36079 ft | 398 kts | 326° |
| 2026-05-05 14:55 | 41.56601 | 18.06768 | 36079 ft | 398 kts | 326° |
| 2026-05-05 14:55 | 41.61476 | 18.03244 | 36088 ft | 398 kts | 326° |
| 2026-05-05 14:56 | 41.66350 | 17.99712 | 36085 ft | 399 kts | 326° |
| 2026-05-05 14:56 | 41.71222 | 17.96166 | 36084 ft | 399 kts | 326° |
| 2026-05-05 14:57 | 41.76098 | 17.92613 | 36087 ft | 399 kts | 326° |
| 2026-05-05 14:57 | 41.80972 | 17.89061 | 36087 ft | 399 kts | 326° |
| 2026-05-05 14:58 | 41.85853 | 17.85506 | 36078 ft | 400 kts | 326° |
| 2026-05-05 14:58 | 41.90744 | 17.81941 | 36071 ft | 400 kts | 326° |
| 2026-05-05 14:59 | 41.95641 | 17.78357 | 36073 ft | 401 kts | 326° |
| 2026-05-05 14:59 | 42.00533 | 17.74757 | 36074 ft | 401 kts | 326° |
| 2026-05-05 15:00 | 42.04607 | 17.71759 | 36077 ft | 402 kts | 326° |
| 2026-05-05 15:00 | 42.10356 | 17.67530 | 36060 ft | 404 kts | 326° |
| 2026-05-05 15:01 | 42.15292 | 17.63884 | 36058 ft | 405 kts | 326° |
| 2026-05-05 15:01 | 42.20240 | 17.60227 | 36057 ft | 406 kts | 326° |
| 2026-05-05 15:02 | 42.24361 | 17.57177 | 36062 ft | 406 kts | 326° |
| 2026-05-05 15:02 | 42.29318 | 17.53501 | 36079 ft | 407 kts | 326° |
| 2026-05-05 15:03 | 42.34275 | 17.49818 | 36078 ft | 407 kts | 326° |
| 2026-05-05 15:03 | 42.39235 | 17.46125 | 36074 ft | 407 kts | 326° |
| 2026-05-05 15:04 | 42.44197 | 17.42431 | 36075 ft | 407 kts | 326° |
| 2026-05-05 15:04 | 42.49158 | 17.38734 | 36067 ft | 407 kts | 326° |
| 2026-05-05 15:05 | 42.56610 | 17.33145 | 36066 ft | 409 kts | 326° |
| 2026-05-05 15:06 | 42.61595 | 17.29401 | 36061 ft | 410 kts | 326° |
| 2026-05-05 15:06 | 42.66586 | 17.25653 | 36065 ft | 410 kts | 326° |
| 2026-05-05 15:07 | 42.71582 | 17.21898 | 36069 ft | 410 kts | 326° |
| 2026-05-05 15:07 | 42.76538 | 17.18149 | 36057 ft | 410 kts | 326° |
| 2026-05-05 15:08 | 42.81532 | 17.14369 | 36066 ft | 411 kts | 326° |
| 2026-05-05 15:08 | 42.86556 | 17.10560 | 36074 ft | 411 kts | 326° |
| 2026-05-05 15:09 | 42.91551 | 17.06773 | 36080 ft | 411 kts | 326° |
| 2026-05-05 15:09 | 42.96553 | 17.02979 | 36064 ft | 412 kts | 326° |
| 2026-05-05 15:10 | 43.01527 | 16.99195 | 36067 ft | 412 kts | 326° |
| 2026-05-05 15:10 | 43.06532 | 16.95366 | 36060 ft | 413 kts | 326° |
| 2026-05-05 15:11 | 43.11547 | 16.91533 | 36059 ft | 413 kts | 326° |
| 2026-05-05 15:11 | 43.16567 | 16.87687 | 36088 ft | 414 kts | 326° |
| 2026-05-05 15:12 | 43.21595 | 16.83825 | 36073 ft | 414 kts | 326° |
| 2026-05-05 15:12 | 43.26624 | 16.79962 | 36075 ft | 414 kts | 326° |
| 2026-05-05 15:13 | 43.31654 | 16.76094 | 36084 ft | 415 kts | 326° |
| 2026-05-05 15:13 | 43.36685 | 16.72212 | 36080 ft | 415 kts | 326° |
| 2026-05-05 15:14 | 43.41717 | 16.68322 | 36083 ft | 415 kts | 326° |
| 2026-05-05 15:14 | 43.46753 | 16.64422 | 36078 ft | 416 kts | 326° |
| 2026-05-05 15:15 | 43.51794 | 16.60506 | 36096 ft | 416 kts | 326° |
| 2026-05-05 15:15 | 43.56836 | 16.56579 | 36099 ft | 416 kts | 326° |
| 2026-05-05 15:16 | 43.61883 | 16.52654 | 36086 ft | 416 kts | 326° |
| 2026-05-05 15:16 | 43.66931 | 16.48721 | 36094 ft | 417 kts | 326° |
| 2026-05-05 15:17 | 43.71975 | 16.44767 | 36096 ft | 417 kts | 326° |
| 2026-05-05 15:17 | 43.77025 | 16.40801 | 36101 ft | 417 kts | 326° |
| 2026-05-05 15:18 | 43.82077 | 16.36834 | 36112 ft | 418 kts | 326° |
| 2026-05-05 15:18 | 43.87133 | 16.32853 | 36101 ft | 418 kts | 326° |
| 2026-05-05 15:19 | 43.92197 | 16.28859 | 36095 ft | 419 kts | 326° |
| 2026-05-05 15:19 | 43.97264 | 16.24860 | 36087 ft | 419 kts | 326° |
| 2026-05-05 15:20 | 44.02331 | 16.20849 | 36086 ft | 419 kts | 326° |
| 2026-05-05 15:20 | 44.07358 | 16.16858 | 36093 ft | 419 kts | 326° |
| 2026-05-05 15:21 | 44.12421 | 16.12834 | 36085 ft | 419 kts | 326° |
| 2026-05-05 15:21 | 44.17490 | 16.08795 | 36076 ft | 420 kts | 326° |
| 2026-05-05 15:22 | 44.22561 | 16.04751 | 36075 ft | 420 kts | 326° |
| 2026-05-05 15:22 | 44.27637 | 16.00691 | 36080 ft | 421 kts | 326° |
| 2026-05-05 15:23 | 44.32719 | 15.96629 | 36078 ft | 421 kts | 326° |
| 2026-05-05 15:23 | 44.37798 | 15.92549 | 36068 ft | 421 kts | 326° |
| 2026-05-05 15:24 | 44.42874 | 15.88463 | 36066 ft | 421 kts | 326° |
| 2026-05-05 15:24 | 44.47959 | 15.84366 | 36077 ft | 422 kts | 326° |
| 2026-05-05 15:25 | 44.53041 | 15.80262 | 36067 ft | 422 kts | 326° |
| 2026-05-05 15:25 | 44.58121 | 15.76143 | 36070 ft | 422 kts | 326° |
| 2026-05-05 15:26 | 44.63206 | 15.72025 | 36059 ft | 422 kts | 326° |
| 2026-05-05 15:26 | 44.68290 | 15.67895 | 36052 ft | 422 kts | 326° |
| 2026-05-05 15:27 | 44.73369 | 15.63748 | 36045 ft | 423 kts | 326° |
| 2026-05-05 15:27 | 44.78459 | 15.59598 | 36033 ft | 423 kts | 326° |
| 2026-05-05 15:28 | 44.83549 | 15.55441 | 36033 ft | 423 kts | 326° |
| 2026-05-05 15:28 | 44.88639 | 15.51280 | 36024 ft | 423 kts | 326° |
| 2026-05-05 15:29 | 44.93730 | 15.47100 | 36032 ft | 423 kts | 326° |
| 2026-05-05 15:29 | 44.98816 | 15.42901 | 36017 ft | 424 kts | 326° |
| 2026-05-05 15:30 | 45.03911 | 15.38704 | 36015 ft | 424 kts | 326° |
| 2026-05-05 15:30 | 45.09015 | 15.34491 | 36008 ft | 425 kts | 326° |
| 2026-05-05 15:31 | 45.14115 | 15.30270 | 36014 ft | 424 kts | 326° |
| 2026-05-05 15:31 | 45.19214 | 15.26041 | 36004 ft | 425 kts | 326° |
| 2026-05-05 15:32 | 45.24318 | 15.21799 | 35997 ft | 425 kts | 326° |
| 2026-05-05 15:32 | 45.29424 | 15.17545 | 35997 ft | 426 kts | 326° |
| 2026-05-05 15:33 | 45.34528 | 15.13284 | 35996 ft | 426 kts | 326° |
| 2026-05-05 15:33 | 45.39631 | 15.09009 | 36003 ft | 426 kts | 326° |
| 2026-05-05 15:34 | 45.44709 | 15.04748 | 35997 ft | 427 kts | 326° |
| 2026-05-05 15:34 | 45.49825 | 15.00456 | 35984 ft | 427 kts | 327° |
| 2026-05-05 15:35 | 45.55128 | 14.96566 | 35988 ft | 430 kts | 331° |
| 2026-05-05 15:35 | 45.60567 | 14.92989 | 36003 ft | 431 kts | 332° |
| 2026-05-05 15:36 | 45.65997 | 14.89372 | 35990 ft | 431 kts | 331° |
| 2026-05-05 15:36 | 45.71402 | 14.85649 | 35992 ft | 431 kts | 330° |
| 2026-05-05 15:37 | 45.76791 | 14.81879 | 35989 ft | 431 kts | 330° |
| 2026-05-05 15:37 | 45.82181 | 14.78100 | 35996 ft | 432 kts | 330° |
| 2026-05-05 15:38 | 45.87582 | 14.74323 | 35996 ft | 432 kts | 330° |
| 2026-05-05 15:38 | 45.92983 | 14.70540 | 36001 ft | 432 kts | 330° |
| 2026-05-05 15:39 | 45.98382 | 14.66761 | 36009 ft | 432 kts | 330° |
| 2026-05-05 15:39 | 46.03781 | 14.62981 | 36009 ft | 432 kts | 330° |
| 2026-05-05 15:40 | 46.09179 | 14.59189 | 36003 ft | 432 kts | 330° |
| 2026-05-05 15:40 | 46.14582 | 14.55378 | 35995 ft | 432 kts | 330° |
| 2026-05-05 15:41 | 46.19951 | 14.51583 | 35990 ft | 432 kts | 330° |
| 2026-05-05 15:41 | 46.25350 | 14.47756 | 36001 ft | 433 kts | 329° |
| 2026-05-05 15:42 | 46.30758 | 14.43908 | 35996 ft | 433 kts | 330° |
| 2026-05-05 15:42 | 46.36170 | 14.40057 | 35993 ft | 434 kts | 330° |
| 2026-05-05 15:43 | 46.41586 | 14.36196 | 35971 ft | 434 kts | 330° |
| 2026-05-05 15:43 | 46.47001 | 14.32334 | 35968 ft | 434 kts | 330° |
| 2026-05-05 15:44 | 46.52407 | 14.28451 | 35971 ft | 434 kts | 330° |
| 2026-05-05 15:44 | 46.57828 | 14.24558 | 35974 ft | 434 kts | 329° |
| 2026-05-05 15:45 | 46.63250 | 14.20667 | 35966 ft | 435 kts | 330° |
| 2026-05-05 15:45 | 46.68687 | 14.16757 | 35958 ft | 436 kts | 329° |
| 2026-05-05 15:46 | 46.74117 | 14.12823 | 35952 ft | 436 kts | 330° |
| 2026-05-05 15:46 | 46.79551 | 14.08873 | 35934 ft | 437 kts | 330° |
| 2026-05-05 15:47 | 46.84960 | 14.04958 | 35915 ft | 437 kts | 330° |
| 2026-05-05 15:47 | 46.90403 | 14.01006 | 35926 ft | 437 kts | 329° |
| 2026-05-05 15:48 | 46.95848 | 13.97030 | 35916 ft | 438 kts | 329° |
| 2026-05-05 15:48 | 47.01293 | 13.93040 | 35916 ft | 437 kts | 329° |
| 2026-05-05 15:49 | 47.06735 | 13.89050 | 35899 ft | 437 kts | 329° |
| 2026-05-05 15:49 | 47.12174 | 13.85062 | 35899 ft | 437 kts | 330° |
| 2026-05-05 15:50 | 47.16693 | 13.81747 | 35883 ft | 437 kts | 329° |
| 2026-05-05 15:50 | 47.22127 | 13.77725 | 35867 ft | 437 kts | 329° |
| 2026-05-05 15:51 | 47.27567 | 13.73689 | 35857 ft | 439 kts | 329° |
| 2026-05-05 15:51 | 47.33027 | 13.69659 | 35826 ft | 439 kts | 329° |
| 2026-05-05 15:52 | 47.38490 | 13.65615 | 35823 ft | 439 kts | 329° |
| 2026-05-05 15:52 | 47.43944 | 13.61544 | 35814 ft | 440 kts | 329° |
| 2026-05-05 15:53 | 47.49409 | 13.57460 | 35791 ft | 441 kts | 329° |
| 2026-05-05 15:53 | 47.54888 | 13.53366 | 35777 ft | 441 kts | 329° |
| 2026-05-05 15:54 | 47.60368 | 13.49266 | 35767 ft | 442 kts | 329° |
| 2026-05-05 15:54 | 47.65848 | 13.45148 | 35772 ft | 442 kts | 329° |
| 2026-05-05 15:55 | 47.71334 | 13.41014 | 35754 ft | 443 kts | 329° |
| 2026-05-05 15:55 | 47.76827 | 13.36861 | 35743 ft | 444 kts | 329° |
| 2026-05-05 15:56 | 47.82298 | 13.32718 | 35737 ft | 444 kts | 329° |
| 2026-05-05 15:56 | 47.87671 | 13.28255 | 35734 ft | 438 kts | 316° |
| 2026-05-05 15:57 | 47.91698 | 13.21610 | 35739 ft | 432 kts | 306° |
| 2026-05-05 15:57 | 47.95517 | 13.14673 | 35726 ft | 434 kts | 305° |
| 2026-05-05 15:58 | 47.99342 | 13.07700 | 35721 ft | 435 kts | 305° |
| 2026-05-05 15:58 | 48.03178 | 13.00706 | 35724 ft | 436 kts | 305° |
| 2026-05-05 15:59 | 48.07018 | 12.93698 | 35727 ft | 436 kts | 306° |
| 2026-05-05 15:59 | 48.10861 | 12.86675 | 35753 ft | 436 kts | 305° |
| 2026-05-05 16:00 | 48.14697 | 12.79632 | 35743 ft | 437 kts | 305° |
| 2026-05-05 16:00 | 48.18533 | 12.72570 | 35742 ft | 437 kts | 305° |
| 2026-05-05 16:01 | 48.22361 | 12.65493 | 35745 ft | 437 kts | 305° |
| 2026-05-05 16:01 | 48.26191 | 12.58405 | 35744 ft | 437 kts | 305° |
| 2026-05-05 16:02 | 48.30015 | 12.51305 | 35745 ft | 437 kts | 304° |
| 2026-05-05 16:02 | 48.33834 | 12.44191 | 35756 ft | 438 kts | 304° |
| 2026-05-05 16:03 | 48.37654 | 12.37062 | 35757 ft | 437 kts | 304° |
| 2026-05-05 16:03 | 48.41474 | 12.29935 | 35763 ft | 437 kts | 304° |
| 2026-05-05 16:04 | 48.45288 | 12.22798 | 35760 ft | 438 kts | 304° |
| 2026-05-05 16:04 | 48.49069 | 12.15688 | 35802 ft | 438 kts | 304° |
| 2026-05-05 16:05 | 48.52880 | 12.08492 | 35760 ft | 439 kts | 304° |
| 2026-05-05 16:05 | 48.56694 | 12.01287 | 35765 ft | 440 kts | 304° |
| 2026-05-05 16:06 | 48.60502 | 11.94056 | 35781 ft | 440 kts | 304° |
| 2026-05-05 16:06 | 48.64312 | 11.86802 | 35796 ft | 441 kts | 304° |
| 2026-05-05 16:07 | 48.68130 | 11.79542 | 35811 ft | 441 kts | 304° |
| 2026-05-05 16:07 | 48.71946 | 11.72255 | 35800 ft | 442 kts | 304° |
| 2026-05-05 16:08 | 48.75767 | 11.64926 | 35799 ft | 444 kts | 304° |
| 2026-05-05 16:08 | 48.79594 | 11.57579 | 35801 ft | 444 kts | 304° |
| 2026-05-05 16:09 | 48.83424 | 11.50209 | 35800 ft | 445 kts | 304° |
| 2026-05-05 16:09 | 48.87249 | 11.42815 | 35811 ft | 445 kts | 304° |
| 2026-05-05 16:10 | 48.91070 | 11.35395 | 35790 ft | 446 kts | 304° |
| 2026-05-05 16:10 | 48.94904 | 11.27951 | 35793 ft | 448 kts | 304° |
| 2026-05-05 16:11 | 48.98749 | 11.20483 | 35792 ft | 448 kts | 304° |
| 2026-05-05 16:11 | 49.04500 | 11.09231 | 34506 ft | 451 kts | 304° |
| 2026-05-05 16:12 | 49.06425 | 11.05444 | 33844 ft | 454 kts | 304° |
| 2026-05-05 16:12 | 49.10325 | 10.97755 | 32156 ft | 462 kts | 304° |
| 2026-05-05 16:13 | 49.16151 | 10.86309 | 31043 ft | 440 kts | 304° |
| 2026-05-05 16:13 | 49.18000 | 10.82662 | 30933 ft | 428 kts | 304° |
| 2026-05-05 16:13 | 49.19798 | 10.79109 | 30698 ft | 419 kts | 304° |
| 2026-05-05 16:14 | 49.23318 | 10.72120 | 29836 ft | 412 kts | 304° |
| 2026-05-05 16:14 | 49.26781 | 10.65224 | 28912 ft | 404 kts | 304° |
| 2026-05-05 16:15 | 49.30169 | 10.58454 | 27996 ft | 397 kts | 304° |
| 2026-05-05 16:15 | 49.33498 | 10.51777 | 27099 ft | 392 kts | 304° |
| 2026-05-05 16:16 | 49.36778 | 10.45176 | 26342 ft | 387 kts | 303° |
| 2026-05-05 16:16 | 49.39877 | 10.38508 | 25503 ft | 381 kts | 301° |
| 2026-05-05 16:17 | 49.42856 | 10.31857 | 24679 ft | 376 kts | 301° |
| 2026-05-05 16:17 | 49.44337 | 10.28562 | 24298 ft | 373 kts | 302° |
| 2026-05-05 16:18 | 49.47263 | 10.22087 | 23519 ft | 369 kts | 302° |
| 2026-05-05 16:18 | 49.48729 | 10.18866 | 23065 ft | 366 kts | 302° |
| 2026-05-05 16:18 | 49.51624 | 10.12476 | 22180 ft | 361 kts | 302° |
| 2026-05-05 16:19 | 49.53051 | 10.09312 | 21738 ft | 359 kts | 302° |
| 2026-05-05 16:19 | 49.54471 | 10.06172 | 21329 ft | 356 kts | 302° |
| 2026-05-05 16:19 | 49.57275 | 9.99963 | 20484 ft | 351 kts | 302° |
| 2026-05-05 16:20 | 49.60039 | 9.93817 | 19672 ft | 347 kts | 302° |
| 2026-05-05 16:20 | 49.62772 | 9.87728 | 18835 ft | 346 kts | 302° |
| 2026-05-05 16:21 | 49.65608 | 9.81368 | 17153 ft | 368 kts | 302° |
| 2026-05-05 16:22 | 49.69947 | 9.71652 | 15714 ft | 363 kts | 302° |
| 2026-05-05 16:22 | 49.72794 | 9.65262 | 14831 ft | 359 kts | 302° |
| 2026-05-05 16:23 | 49.75601 | 9.58944 | 14016 ft | 354 kts | 303° |
| 2026-05-05 16:23 | 49.76993 | 9.55804 | 13614 ft | 352 kts | 302° |
| 2026-05-05 16:23 | 49.80180 | 9.50114 | 12714 ft | 350 kts | 314° |
| 2026-05-05 16:24 | 49.81914 | 9.47484 | 12286 ft | 348 kts | 314° |
| 2026-05-05 16:24 | 49.83630 | 9.44868 | 11875 ft | 345 kts | 314° |
| 2026-05-05 16:24 | 49.87029 | 9.39695 | 11057 ft | 340 kts | 314° |
| 2026-05-05 16:25 | 49.88710 | 9.37137 | 10665 ft | 338 kts | 314° |
| 2026-05-05 16:25 | 49.92042 | 9.32064 | 9880 ft | 333 kts | 314° |
| 2026-05-05 16:25 | 49.93693 | 9.29556 | 9489 ft | 331 kts | 314° |
| 2026-05-05 16:26 | 49.96961 | 9.24599 | 8688 ft | 326 kts | 314° |
| 2026-05-05 16:26 | 50.00121 | 9.19822 | 8355 ft | 306 kts | 314° |
| 2026-05-05 16:27 | 50.01707 | 9.17706 | 8189 ft | 296 kts | 326° |
| 2026-05-05 16:27 | 50.03587 | 9.16497 | 7949 ft | 293 kts | 347° |
| 2026-05-05 16:27 | 50.05564 | 9.15794 | 7626 ft | 291 kts | 345° |
| 2026-05-05 16:27 | 50.07510 | 9.14986 | 7311 ft | 287 kts | 344° |
| 2026-05-05 16:28 | 50.09396 | 9.14200 | 7139 ft | 271 kts | 343° |
| 2026-05-05 16:28 | 50.11179 | 9.13443 | 6711 ft | 259 kts | 340° |
| 2026-05-05 16:28 | 50.12828 | 9.12508 | 6294 ft | 246 kts | 333° |
| 2026-05-05 16:28 | 50.14158 | 9.10956 | 5832 ft | 235 kts | 308° |
| 2026-05-05 16:29 | 50.14938 | 9.08799 | 5394 ft | 223 kts | 285° |
| 2026-05-05 16:29 | 50.15108 | 9.06525 | 5102 ft | 199 kts | 263° |
| 2026-05-05 16:29 | 50.14820 | 9.04555 | 4999 ft | 178 kts | 246° |
| 2026-05-05 16:29 | 50.14404 | 9.02790 | 4931 ft | 169 kts | 248° |
| 2026-05-05 16:30 | 50.13988 | 9.01003 | 4870 ft | 177 kts | 248° |
| 2026-05-05 16:30 | 50.13593 | 8.99300 | 4816 ft | 158 kts | 248° |
| 2026-05-05 16:30 | 50.13227 | 8.97737 | 4728 ft | 152 kts | 248° |
| 2026-05-05 16:30 | 50.12869 | 8.96206 | 4653 ft | 150 kts | 248° |
| 2026-05-05 16:31 | 50.12516 | 8.94699 | 4586 ft | 149 kts | 247° |
| 2026-05-05 16:31 | 50.12163 | 8.93192 | 4509 ft | 147 kts | 248° |
| 2026-05-05 16:31 | 50.11806 | 8.91672 | 4429 ft | 147 kts | 248° |
| 2026-05-05 16:31 | 50.11455 | 8.90175 | 4354 ft | 147 kts | 246° |
| 2026-05-05 16:32 | 50.11102 | 8.88675 | 4302 ft | 148 kts | 248° |
| 2026-05-05 16:32 | 50.10752 | 8.87183 | 4154 ft | 147 kts | 247° |
| 2026-05-05 16:32 | 50.10402 | 8.85693 | 3982 ft | 146 kts | 248° |
| 2026-05-05 16:32 | 50.10050 | 8.84201 | 3813 ft | 146 kts | 248° |
| 2026-05-05 16:33 | 50.09702 | 8.82720 | 3595 ft | 146 kts | 248° |
| 2026-05-05 16:33 | 50.09352 | 8.81236 | 3411 ft | 145 kts | 247° |
| 2026-05-05 16:33 | 50.09006 | 8.79764 | 3226 ft | 144 kts | 247° |
| 2026-05-05 16:34 | 50.08334 | 8.76918 | 2839 ft | 144 kts | 248° |
| 2026-05-05 16:34 | 50.07991 | 8.75467 | 2658 ft | 142 kts | 249° |
| 2026-05-05 16:34 | 50.07652 | 8.74031 | 2471 ft | 142 kts | 249° |
| 2026-05-05 16:34 | 50.07312 | 8.72597 | 2284 ft | 141 kts | 248° |
| 2026-05-05 16:35 | 50.06974 | 8.71166 | 2094 ft | 141 kts | 249° |
| 2026-05-05 16:35 | 50.06735 | 8.69695 | 1913 ft | 141 kts | 265° |
| 2026-05-05 16:35 | 50.06706 | 8.68166 | 1743 ft | 141 kts | 264° |
| 2026-05-05 16:35 | 50.06464 | 8.66716 | 1505 ft | 137 kts | 247° |
| 2026-05-05 16:36 | 50.06094 | 8.65367 | 1315 ft | 136 kts | 249° |
| 2026-05-05 16:36 | 50.05761 | 8.63973 | 1131 ft | 138 kts | 250° |
| 2026-05-05 16:36 | 50.05439 | 8.62573 | 962 ft | 139 kts | 249° |
| 2026-05-05 16:36 | 50.05100 | 8.61159 | 768 ft | 143 kts | 249° |
| 2026-05-05 16:37 | 50.04756 | 8.59712 | 582 ft | 142 kts | 250° |
| 2026-05-05 16:37 | 50.04412 | 8.58271 | 381 ft | 140 kts | 250° |
| 2026-05-05 16:37 | 50.04115 | 8.57027 | 364 ft | 96 kts | 250° |
| 2026-05-05 16:37 | 50.03944 | 8.56318 | 355 ft | 46 kts | 250° |
| 2026-05-05 16:38 | 50.03884 | 8.55968 | 351 ft | 24 kts | 266° |
| 2026-05-05 16:38 | 50.03895 | 8.55769 | 356 ft | 15 kts | 279° |
| 2026-05-05 16:38 | 50.03905 | 8.55677 | 351 ft | 4 kts | 280° |
| 2026-05-05 16:38 | 50.03907 | 8.55663 | 353 ft | 1 kts | 279° |
| 2026-05-05 16:39 | 50.03907 | 8.55661 | 348 ft | 0 kts | 279° |
| 2026-05-05 16:39 | 50.03914 | 8.55622 | 352 ft | 7 kts | 284° |
| 2026-05-05 16:39 | 50.03951 | 8.55597 | 349 ft | 6 kts | 25° |
| 2026-05-05 16:40 | 50.03973 | 8.55640 | 351 ft | 4 kts | 66° |
| 2026-05-05 16:40 | 50.03993 | 8.55719 | 350 ft | 9 kts | 69° |
| 2026-05-05 16:40 | 50.04013 | 8.55801 | 355 ft | 8 kts | 70° |
| 2026-05-05 16:40 | 50.04039 | 8.55909 | 358 ft | 11 kts | 70° |
| 2026-05-05 16:41 | 50.04062 | 8.56008 | 354 ft | 10 kts | 69° |
| 2026-05-05 16:41 | 50.04086 | 8.56106 | 357 ft | 9 kts | 69° |
| 2026-05-05 16:41 | 50.04116 | 8.56233 | 355 ft | 14 kts | 69° |
| 2026-05-05 16:41 | 50.04149 | 8.56370 | 357 ft | 12 kts | 70° |
| 2026-05-05 16:42 | 50.04174 | 8.56477 | 360 ft | 10 kts | 70° |
| 2026-05-05 16:42 | 50.04200 | 8.56587 | 362 ft | 12 kts | 69° |
| 2026-05-05 16:42 | 50.04231 | 8.56713 | 360 ft | 13 kts | 70° |
| 2026-05-05 16:42 | 50.04263 | 8.56849 | 362 ft | 14 kts | 69° |
| 2026-05-05 16:43 | 50.04301 | 8.57009 | 363 ft | 17 kts | 69° |
| 2026-05-05 16:43 | 50.04344 | 8.57189 | 363 ft | 19 kts | 69° |
| 2026-05-05 16:43 | 50.04387 | 8.57366 | 364 ft | 16 kts | 69° |
| 2026-05-05 16:43 | 50.04421 | 8.57508 | 363 ft | 12 kts | 69° |
| 2026-05-05 16:44 | 50.04443 | 8.57603 | 370 ft | 8 kts | 70° |
| 2026-05-05 16:44 | 50.04467 | 8.57701 | 368 ft | 12 kts | 69° |
| 2026-05-05 16:44 | 50.04489 | 8.57793 | 366 ft | 15 kts | 69° |
| 2026-05-05 16:44 | 50.04530 | 8.57970 | 368 ft | 19 kts | 70° |
| 2026-05-05 16:45 | 50.04576 | 8.58153 | 367 ft | 17 kts | 70° |
| 2026-05-05 16:45 | 50.04607 | 8.58291 | 369 ft | 11 kts | 69° |
| 2026-05-05 16:45 | 50.04649 | 8.58467 | 371 ft | 17 kts | 69° |
| 2026-05-05 16:45 | 50.04681 | 8.58600 | 372 ft | 21 kts | 69° |
| 2026-05-05 16:46 | 50.04746 | 8.58847 | 374 ft | 17 kts | 69° |
| 2026-05-05 16:46 | 50.04747 | 8.58851 | 373 ft | 17 kts | 69° |
| 2026-05-05 16:46 | 50.04785 | 8.59010 | 368 ft | 14 kts | 69° |
| 2026-05-05 16:46 | 50.04813 | 8.59129 | 369 ft | 10 kts | 70° |
| 2026-05-05 16:47 | 50.04834 | 8.59210 | 371 ft | 6 kts | 58° |
| 2026-05-05 16:47 | 50.04875 | 8.59212 | 371 ft | 7 kts | 339° |
| 2026-05-05 16:47 | 50.04913 | 8.59190 | 367 ft | 2 kts | 340° |
| 2026-05-05 16:47 | 50.04920 | 8.59186 | 367 ft | 0 kts | 340° |